Time;durP1;ratioP1;P1;durP2;ratioP2;P2;SDS_P1;SDS_P2;PMS_P1;PMS_P2;Temp;Humidity;BMP_temperature;BMP_pressure;BME280_temperature;BME280_humidity;BME280_pressure;Samples;Min_cycle;Max_cycle;Signal;HPM_P1;HPM_P2
2021/05/27 00:00:22;;;;;;;19.77;5.70;;;21.70;45.60;;;;;;1045048;28;20017;-77
2021/05/27 00:00:53;;;;;;;18.17;5.43;;;21.70;45.80;;;;;;1046297;28;20021;-77
2021/05/27 00:01:24;;;;;;;20.63;5.97;;;21.70;45.90;;;;;;1050514;28;20016;-78
2021/05/27 00:01:56;;;;;;;16.33;5.65;;;21.70;45.70;;;;;;1049051;28;20164;-79
2021/05/27 00:02:27;;;;;;;16.95;5.43;;;21.70;45.80;;;;;;1047569;28;20085;-79
2021/05/27 00:02:59;;;;;;;16.77;5.30;;;21.70;45.70;;;;;;1042343;28;20017;-78
2021/05/27 00:03:30;;;;;;;17.95;5.47;;;21.60;45.70;;;;;;1045214;28;20021;-78
2021/05/27 00:04:02;;;;;;;20.35;5.57;;;21.50;46.50;;;;;;1049677;28;20455;-77
2021/05/27 00:04:36;;;;;;;16.67;5.63;;;21.60;46.00;;;;;;1050712;28;20091;-79
2021/05/27 00:05:09;;;;;;;19.30;5.53;;;21.50;46.00;;;;;;1053731;28;20028;-78
2021/05/27 00:05:40;;;;;;;17.38;5.43;;;21.50;46.60;;;;;;1050295;28;20481;-78
2021/05/27 00:06:12;;;;;;;19.90;5.60;;;21.40;46.20;;;;;;1052946;28;20023;-78
2021/05/27 00:06:43;;;;;;;19.73;5.53;;;21.40;46.20;;;;;;1049165;28;20024;-79
2021/05/27 00:07:14;;;;;;;19.38;5.47;;;21.40;46.10;;;;;;1045263;28;20028;-80
2021/05/27 00:07:46;;;;;;;18.90;5.53;;;21.40;46.30;;;;;;1048834;28;20028;-79
2021/05/27 00:08:17;;;;;;;18.33;5.72;;;21.30;46.30;;;;;;1048954;28;20031;-79
2021/05/27 00:08:49;;;;;;;17.63;5.18;;;21.30;46.30;;;;;;1049640;28;20025;-79
2021/05/27 00:09:20;;;;;;;18.08;5.15;;;21.30;46.40;;;;;;1053518;28;20024;-78
2021/05/27 00:09:51;;;;;;;20.52;5.57;;;21.30;46.90;;;;;;1053567;28;20465;-79
2021/05/27 00:10:25;;;;;;;20.08;5.30;;;21.30;46.60;;;;;;1049089;28;20117;-79
2021/05/27 00:10:57;;;;;;;22.20;5.68;;;21.20;46.60;;;;;;1049659;28;20021;-79
2021/05/27 00:11:30;;;;;;;17.23;5.80;;;21.20;46.80;;;;;;1053454;28;20039;-79
2021/05/27 00:12:02;;;;;;;17.40;5.72;;;21.20;46.50;;;;;;1050537;28;20024;-79
2021/05/27 00:12:34;;;;;;;16.73;5.70;;;21.20;46.60;;;;;;1052035;28;20024;-78
2021/05/27 00:13:05;;;;;;;16.92;5.35;;;21.20;46.50;;;;;;1053355;28;20016;-79
2021/05/27 00:13:37;;;;;;;21.00;5.55;;;21.10;46.70;;;;;;1052983;28;20016;-80
2021/05/27 00:14:08;;;;;;;18.25;5.53;;;21.20;46.70;;;;;;1053511;28;20514;-79
2021/05/27 00:14:40;;;;;;;19.35;5.68;;;21.20;46.60;;;;;;1050930;28;20024;-79
2021/05/27 00:15:12;;;;;;;16.50;5.13;;;21.10;46.70;;;;;;1050690;28;20017;-79
2021/05/27 00:15:44;;;;;;;19.38;5.50;;;21.10;46.70;;;;;;1053491;28;20346;-79
2021/05/27 00:16:15;;;;;;;18.00;5.68;;;21.10;46.70;;;;;;1053418;28;20016;-78
2021/05/27 00:16:47;;;;;;;16.60;5.13;;;21.10;47.00;;;;;;1053479;28;20099;-79
2021/05/27 00:17:19;;;;;;;19.98;5.53;;;21.10;47.30;;;;;;1053530;28;20031;-79
2021/05/27 00:17:50;;;;;;;19.98;5.30;;;21.10;47.10;;;;;;1053081;28;20521;-79
2021/05/27 00:18:22;;;;;;;24.35;5.75;;;21.10;47.20;;;;;;1049005;28;20020;-79
2021/05/27 00:18:53;;;;;;;18.90;5.75;;;21.10;46.80;;;;;;1048936;28;20031;-79
2021/05/27 00:19:24;;;;;;;18.80;5.50;;;21.10;47.00;;;;;;1049064;28;20017;-80
2021/05/27 00:19:56;;;;;;;19.15;5.35;;;21.10;47.10;;;;;;1049108;28;20044;-79
2021/05/27 00:20:28;;;;;;;19.85;5.78;;;21.10;47.10;;;;;;1049745;28;20397;-78
2021/05/27 00:21:00;;;;;;;18.35;5.80;;;21.10;46.70;;;;;;1053447;28;20077;-79
2021/05/27 00:21:31;;;;;;;21.80;5.93;;;21.10;46.80;;;;;;1053525;28;20028;-79
2021/05/27 00:22:03;;;;;;;17.02;5.45;;;21.10;46.70;;;;;;1048976;28;20013;-79
2021/05/27 00:22:34;;;;;;;18.65;5.05;;;21.10;46.80;;;;;;1044838;28;20059;-79
2021/05/27 00:23:06;;;;;;;21.83;5.80;;;21.00;46.70;;;;;;1042653;28;20453;-79
2021/05/27 00:23:37;;;;;;;21.48;5.55;;;21.00;46.90;;;;;;1041385;28;20063;-79
2021/05/27 00:24:08;;;;;;;16.77;5.50;;;21.00;47.00;;;;;;1045435;28;20028;-79
2021/05/27 00:24:40;;;;;;;20.05;6.00;;;21.00;47.00;;;;;;1045451;28;20025;-78
2021/05/27 00:25:13;;;;;;;20.90;5.38;;;21.00;47.00;;;;;;1048999;28;20037;-79
2021/05/27 00:25:44;;;;;;;22.05;5.72;;;20.90;47.10;;;;;;1043936;28;20079;-80
2021/05/27 00:26:16;;;;;;;20.60;5.53;;;21.00;47.20;;;;;;1044812;28;20452;-79
2021/05/27 00:26:48;;;;;;;16.17;5.50;;;20.90;47.40;;;;;;1044725;28;20039;-78
2021/05/27 00:27:19;;;;;;;18.02;5.47;;;20.90;47.50;;;;;;1045312;28;20328;-78
2021/05/27 00:27:52;;;;;;;20.42;5.68;;;20.90;47.70;;;;;;1049173;28;20031;-78
2021/05/27 00:28:24;;;;;;;17.58;5.47;;;20.90;47.90;;;;;;1047782;28;20083;-79
2021/05/27 00:28:55;;;;;;;22.70;5.60;;;20.90;48.10;;;;;;1048151;28;20020;-79
2021/05/27 00:29:26;;;;;;;19.77;6.07;;;20.90;48.10;;;;;;1047536;28;20382;-79
2021/05/27 00:29:58;;;;;;;16.00;4.88;;;20.90;48.00;;;;;;1045353;28;20068;-79
2021/05/27 00:30:29;;;;;;;19.73;5.40;;;20.90;47.70;;;;;;1049085;28;20103;-78
2021/05/27 00:31:00;;;;;;;19.92;5.85;;;20.90;48.20;;;;;;1052808;28;20480;-78
2021/05/27 00:31:32;;;;;;;20.02;5.90;;;21.00;47.80;;;;;;1053270;28;20153;-79
2021/05/27 00:32:03;;;;;;;17.65;5.25;;;21.00;47.70;;;;;;1053442;28;20023;-78
2021/05/27 00:32:35;;;;;;;16.63;5.65;;;21.00;47.50;;;;;;1048883;28;20021;-79
2021/05/27 00:33:06;;;;;;;19.30;5.78;;;21.00;47.60;;;;;;1044766;28;20065;-78
2021/05/27 00:33:38;;;;;;;17.95;5.32;;;20.90;47.60;;;;;;1046305;28;20493;-78
2021/05/27 00:34:09;;;;;;;21.67;5.70;;;21.00;47.90;;;;;;1047198;28;20035;-79
2021/05/27 00:34:40;;;;;;;18.40;5.57;;;21.00;47.30;;;;;;1044883;28;20104;-78
2021/05/27 00:35:13;;;;;;;19.40;5.53;;;20.90;47.20;;;;;;1048894;28;20028;-79
2021/05/27 00:35:44;;;;;;;15.82;5.28;;;20.90;47.30;;;;;;1048831;28;20021;-78
2021/05/27 00:36:16;;;;;;;17.02;5.13;;;20.90;47.60;;;;;;1044726;28;20024;-79
2021/05/27 00:36:47;;;;;;;17.83;5.40;;;20.90;47.40;;;;;;1043801;28;20017;-81
2021/05/27 00:37:19;;;;;;;19.88;5.78;;;20.90;47.20;;;;;;1045815;28;20024;-81
2021/05/27 00:37:50;;;;;;;19.98;5.70;;;20.90;47.20;;;;;;1044518;28;20021;-81
2021/05/27 00:38:22;;;;;;;17.42;5.20;;;20.90;47.10;;;;;;1044237;28;20052;-79
2021/05/27 00:39:11;;;;;;;19.63;5.55;;;20.90;47.40;;;;;;1044941;28;20373;-81
2021/05/27 00:39:42;;;;;;;22.77;5.55;;;20.80;47.50;;;;;;1052442;28;20359;-81
2021/05/27 00:40:16;;;;;;;21.33;5.57;;;20.80;47.50;;;;;;1049273;28;20043;-81
2021/05/27 00:40:48;;;;;;;20.63;5.38;;;20.80;47.50;;;;;;1046383;28;20029;-81
2021/05/27 00:41:19;;;;;;;18.83;6.18;;;20.80;47.70;;;;;;1047476;28;20377;-81
2021/05/27 00:41:51;;;;;;;20.33;6.00;;;20.80;47.60;;;;;;1046780;28;20025;-81
2021/05/27 00:42:22;;;;;;;15.80;5.70;;;20.80;47.60;;;;;;1043143;28;20021;-81
2021/05/27 00:42:53;;;;;;;17.85;5.50;;;20.80;47.50;;;;;;1046701;28;20013;-81
2021/05/27 00:43:25;;;;;;;18.60;5.07;;;20.80;47.50;;;;;;1044647;28;20021;-81
2021/05/27 00:43:56;;;;;;;19.15;5.40;;;20.80;47.20;;;;;;1045803;28;20045;-81
2021/05/27 00:44:30;;;;;;;17.60;5.95;;;20.80;47.20;;;;;;1044878;28;20029;-81
2021/05/27 00:45:05;;;;;;;17.73;5.28;;;20.80;47.30;;;;;;1046857;28;20047;-81
2021/05/27 00:45:36;;;;;;;18.70;5.93;;;20.80;47.20;;;;;;1046379;28;20047;-80
2021/05/27 00:46:08;;;;;;;19.50;5.88;;;20.80;47.10;;;;;;1044749;28;20021;-80
2021/05/27 00:46:39;;;;;;;20.83;5.90;;;20.80;47.30;;;;;;1043962;28;20025;-80
2021/05/27 00:47:11;;;;;;;20.75;5.78;;;20.80;47.20;;;;;;1044768;28;20358;-81
2021/05/27 00:47:44;;;;;;;16.63;5.45;;;20.80;47.10;;;;;;1044630;28;20013;-80
2021/05/27 00:49:05;;;;;;;19.33;5.88;;;20.70;47.10;;;;;;1052761;28;20023;-80
2021/05/27 00:49:37;;;;;;;21.00;5.80;;;20.60;47.50;;;;;;1048992;28;20119;-81
2021/05/27 00:50:23;;;;;;;22.42;6.10;;;20.60;47.80;;;;;;1049439;28;20352;-81
2021/05/27 00:50:54;;;;;;;15.30;5.05;;;20.50;47.80;;;;;;1044702;28;20048;-79
2021/05/27 00:51:27;;;;;;;22.38;6.10;;;20.50;47.90;;;;;;1047256;28;20028;-80
2021/05/27 00:51:59;;;;;;;20.02;5.82;;;20.50;48.10;;;;;;1043518;28;20059;-80
2021/05/27 00:52:32;;;;;;;18.48;5.63;;;20.40;48.00;;;;;;1040909;28;20049;-79
2021/05/27 00:53:03;;;;;;;19.60;5.65;;;20.40;48.10;;;;;;1044584;28;20512;-80
2021/05/27 00:53:35;;;;;;;21.65;5.70;;;20.40;48.10;;;;;;1040463;28;20014;-80
2021/05/27 00:54:06;;;;;;;22.73;5.60;;;20.30;48.10;;;;;;1041491;28;20171;-80
2021/05/27 00:54:38;;;;;;;20.38;5.53;;;20.30;48.30;;;;;;1038145;28;20068;-81
2021/05/27 00:55:10;;;;;;;19.90;5.93;;;20.30;48.30;;;;;;1040003;28;20504;-80
2021/05/27 00:55:42;;;;;;;21.42;5.80;;;20.30;48.60;;;;;;1046695;28;20032;-80
2021/05/27 00:56:13;;;;;;;18.55;5.07;;;20.20;48.30;;;;;;1044411;28;20040;-81
2021/05/27 00:56:47;;;;;;;19.33;5.43;;;20.20;48.20;;;;;;1044520;28;20055;-81
2021/05/27 00:57:39;;;;;;;18.00;5.25;;;20.20;48.30;;;;;;1046758;28;20462;-81
2021/05/27 00:58:12;;;;;;;18.98;5.15;;;20.10;48.40;;;;;;1045107;28;20017;-81
2021/05/27 00:58:44;;;;;;;22.65;6.00;;;20.20;48.30;;;;;;1052264;28;20048;-81
2021/05/27 00:59:16;;;;;;;22.33;5.45;;;20.20;48.30;;;;;;1045895;28;20024;-81
2021/05/27 00:59:48;;;;;;;19.67;5.35;;;20.20;48.30;;;;;;1046573;28;20023;-78
2021/05/27 01:00:24;;;;;;;21.30;5.25;;;20.10;48.30;;;;;;1048155;28;20021;-79
2021/05/27 01:00:56;;;;;;;19.70;5.40;;;20.20;48.00;;;;;;1050586;28;20434;-81
2021/05/27 01:01:27;;;;;;;19.60;5.53;;;20.10;48.00;;;;;;1048972;28;20021;-81
2021/05/27 01:01:59;;;;;;;15.93;5.63;;;20.10;48.10;;;;;;1050503;28;20524;-80
2021/05/27 01:02:30;;;;;;;20.65;5.55;;;20.10;48.20;;;;;;1049917;28;20412;-80
2021/05/27 01:03:01;;;;;;;21.23;5.40;;;20.00;48.10;;;;;;1053300;28;20108;-80
2021/05/27 01:03:33;;;;;;;21.90;5.57;;;20.00;48.30;;;;;;1048820;28;20470;-79
2021/05/27 01:04:04;;;;;;;19.13;5.40;;;20.00;48.40;;;;;;1046421;28;20051;-80
2021/05/27 01:04:36;;;;;;;16.52;5.13;;;20.00;47.80;;;;;;1045111;28;20055;-79
2021/05/27 01:05:10;;;;;;;19.30;5.45;;;20.00;48.00;;;;;;1046575;28;20031;-80
2021/05/27 01:05:41;;;;;;;20.00;5.35;;;20.00;48.30;;;;;;1052183;28;20170;-79
2021/05/27 01:06:12;;;;;;;19.63;5.47;;;19.90;48.20;;;;;;1049788;28;20024;-80
2021/05/27 01:06:44;;;;;;;17.15;5.22;;;19.90;48.30;;;;;;1048687;28;20024;-80
2021/05/27 01:07:15;;;;;;;21.13;5.70;;;19.90;48.40;;;;;;1048949;28;20028;-79
2021/05/27 01:07:48;;;;;;;18.00;5.28;;;19.90;48.50;;;;;;1048889;28;20020;-79
2021/05/27 01:08:19;;;;;;;18.88;5.22;;;19.90;48.50;;;;;;1049085;28;20355;-79
2021/05/27 01:08:51;;;;;;;15.68;4.65;;;19.90;48.30;;;;;;1048836;28;20020;-78
2021/05/27 01:09:22;;;;;;;21.17;6.13;;;19.90;48.20;;;;;;1049000;28;20025;-79
2021/05/27 01:09:54;;;;;;;18.10;5.38;;;19.90;48.20;;;;;;1048360;28;20112;-79
2021/05/27 01:10:25;;;;;;;16.15;5.25;;;19.90;48.20;;;;;;1044969;28;20075;-78
2021/05/27 01:10:57;;;;;;;16.80;5.25;;;19.80;48.00;;;;;;1046663;28;20051;-79
2021/05/27 01:11:29;;;;;;;17.88;5.78;;;19.80;48.20;;;;;;1047376;28;20040;-80
2021/05/27 01:12:00;;;;;;;16.95;5.00;;;19.90;48.60;;;;;;1047651;28;20115;-79
2021/05/27 01:12:32;;;;;;;25.20;5.60;;;19.80;48.20;;;;;;1048751;28;20036;-78
2021/05/27 01:13:04;;;;;;;18.38;5.30;;;19.90;48.50;;;;;;1048643;28;20020;-78
2021/05/27 01:13:35;;;;;;;19.42;5.15;;;19.90;48.50;;;;;;1045148;28;20036;-78
2021/05/27 01:14:14;;;;;;;16.63;4.88;;;19.90;48.60;;;;;;1049312;28;20048;-78
2021/05/27 01:15:35;;;;;;;18.98;5.78;;;19.90;48.80;;;;;;1048110;28;20027;-79
2021/05/27 01:16:21;;;;;;;17.13;5.43;;;19.90;48.70;;;;;;1049806;28;20091;-79
2021/05/27 01:16:52;;;;;;;18.08;5.07;;;19.90;48.70;;;;;;1051286;28;20008;-79
2021/05/27 01:17:24;;;;;;;26.73;5.72;;;19.90;48.60;;;;;;1051666;28;20065;-78
2021/05/27 01:17:57;;;;;;;26.30;5.75;;;19.90;48.50;;;;;;1046466;28;20031;-78
2021/05/27 01:18:29;;;;;;;23.88;5.53;;;20.00;48.50;;;;;;1047241;28;20700;-78
2021/05/27 01:19:00;;;;;;;17.33;5.28;;;20.00;48.60;;;;;;1046531;28;20045;-78
2021/05/27 01:19:32;;;;;;;20.63;5.57;;;20.00;48.70;;;;;;1045346;28;20590;-78
2021/05/27 01:20:06;;;;;;;20.15;5.47;;;19.90;48.80;;;;;;1051560;28;20473;-79
2021/05/27 01:20:39;;;;;;;17.90;5.05;;;19.90;48.90;;;;;;1052633;28;20071;-76
2021/05/27 01:21:11;;;;;;;20.70;5.57;;;19.90;48.10;;;;;;1048738;28;20017;-76
2021/05/27 01:21:46;;;;;;;20.92;5.95;;;19.90;48.40;;;;;;1049396;28;20396;-75
2021/05/27 01:22:18;;;;;;;17.95;5.50;;;20.00;48.70;;;;;;1044475;28;20043;-75
2021/05/27 01:22:50;;;;;;;20.40;5.40;;;19.90;48.70;;;;;;1041460;28;20024;-77
2021/05/27 01:23:23;;;;;;;19.15;6.00;;;19.90;48.90;;;;;;1044283;28;20366;-76
2021/05/27 01:23:54;;;;;;;22.25;5.60;;;20.00;49.00;;;;;;1041054;28;20010;-76
2021/05/27 01:24:26;;;;;;;20.85;5.53;;;19.90;49.00;;;;;;1041563;28;20064;-77
2021/05/27 01:24:57;;;;;;;20.40;5.55;;;19.90;49.00;;;;;;1042158;28;20071;-77
2021/05/27 01:25:29;;;;;;;19.55;5.47;;;20.00;48.80;;;;;;1045189;28;20020;-77
2021/05/27 01:26:02;;;;;;;17.25;5.47;;;20.00;48.70;;;;;;1049021;28;20035;-75
2021/05/27 01:26:33;;;;;;;17.60;5.30;;;20.10;48.40;;;;;;1049657;28;20051;-75
2021/05/27 01:27:05;;;;;;;19.58;5.45;;;20.00;48.30;;;;;;1051267;28;20446;-76
2021/05/27 01:27:36;;;;;;;14.90;5.15;;;20.10;48.40;;;;;;1052609;28;20476;-76
2021/05/27 01:28:08;;;;;;;20.50;5.65;;;20.10;48.50;;;;;;1047845;28;20009;-76
2021/05/27 01:28:41;;;;;;;18.67;5.47;;;20.00;48.60;;;;;;1048828;28;20012;-76
2021/05/27 01:29:12;;;;;;;21.83;5.70;;;19.90;48.70;;;;;;1048850;28;20008;-77
2021/05/27 01:29:50;;;;;;;18.38;5.63;;;19.90;48.60;;;;;;1049495;28;20019;-76
2021/05/27 01:30:22;;;;;;;20.35;5.72;;;19.90;48.80;;;;;;1053311;28;20095;-76
2021/05/27 01:30:53;;;;;;;21.10;5.93;;;19.80;49.00;;;;;;1048212;28;20019;-78
2021/05/27 01:31:24;;;;;;;22.50;5.97;;;19.80;49.30;;;;;;1044522;28;20021;-76
2021/05/27 01:31:58;;;;;;;24.70;5.85;;;19.80;49.50;;;;;;1045435;28;20343;-76
2021/05/27 01:32:29;;;;;;;21.90;5.90;;;19.60;49.70;;;;;;1050793;28;20024;-77
2021/05/27 01:33:01;;;;;;;22.00;5.97;;;19.60;49.90;;;;;;1057374;28;20019;-76
2021/05/27 01:33:32;;;;;;;24.95;5.90;;;19.60;49.90;;;;;;1057509;28;20437;-76
2021/05/27 01:34:07;;;;;;;24.92;6.22;;;19.50;50.10;;;;;;1053576;28;20456;-77
2021/05/27 01:34:38;;;;;;;22.17;5.68;;;19.50;50.30;;;;;;1048545;28;20013;-76
2021/05/27 01:35:16;;;;;;;22.92;5.63;;;19.40;50.50;;;;;;1047664;28;20032;-76
2021/05/27 01:35:48;;;;;;;22.98;5.93;;;19.40;50.70;;;;;;1048486;28;20077;-76
2021/05/27 01:36:19;;;;;;;21.08;5.82;;;19.40;50.90;;;;;;1049671;28;20415;-76
2021/05/27 01:36:50;;;;;;;21.60;5.78;;;19.30;50.90;;;;;;1053110;28;20350;-76
2021/05/27 01:37:22;;;;;;;21.52;6.07;;;19.30;51.00;;;;;;1048693;28;20020;-77
2021/05/27 01:37:54;;;;;;;22.67;6.25;;;19.30;51.20;;;;;;1049121;28;20354;-76
2021/05/27 01:38:28;;;;;;;23.40;6.25;;;19.20;51.30;;;;;;1052670;28;20050;-77
2021/05/27 01:39:00;;;;;;;21.80;6.03;;;19.20;51.50;;;;;;1047533;28;20025;-77
2021/05/27 01:39:31;;;;;;;20.52;6.00;;;19.20;51.50;;;;;;1044378;28;20045;-78
2021/05/27 01:40:03;;;;;;;23.80;6.15;;;19.10;51.60;;;;;;1044718;28;20009;-78
2021/05/27 01:40:35;;;;;;;22.38;6.07;;;19.10;51.80;;;;;;1046658;28;20036;-77
2021/05/27 01:41:06;;;;;;;22.58;5.57;;;19.00;51.90;;;;;;1049384;28;20059;-77
2021/05/27 01:41:38;;;;;;;23.20;6.28;;;19.00;52.00;;;;;;1052327;28;20017;-76
2021/05/27 01:42:09;;;;;;;23.45;5.93;;;19.00;52.10;;;;;;1051048;28;20303;-77
2021/05/27 01:42:41;;;;;;;23.55;6.03;;;19.00;52.10;;;;;;1046066;28;20024;-76
2021/05/27 01:43:12;;;;;;;22.17;5.82;;;19.00;52.10;;;;;;1046733;28;20024;-77
2021/05/27 01:43:44;;;;;;;23.58;6.10;;;18.90;52.30;;;;;;1053114;28;20040;-76
2021/05/27 01:44:15;;;;;;;23.63;6.25;;;18.90;52.40;;;;;;1049385;28;20012;-77
2021/05/27 01:44:47;;;;;;;23.38;5.53;;;19.00;52.40;;;;;;1046497;28;20463;-74
2021/05/27 01:45:18;;;;;;;19.85;5.70;;;18.90;52.20;;;;;;1039279;28;20018;-76
2021/05/27 01:45:50;;;;;;;21.15;5.72;;;18.90;52.30;;;;;;1032883;28;20105;-77
2021/05/27 01:46:22;;;;;;;20.73;5.72;;;18.90;52.60;;;;;;1036930;28;20018;-76
2021/05/27 01:46:53;;;;;;;21.10;6.13;;;18.80;52.50;;;;;;1041059;28;20092;-76
2021/05/27 01:47:25;;;;;;;24.85;5.75;;;18.80;52.60;;;;;;1042364;28;20088;-76
2021/05/27 01:47:56;;;;;;;23.45;5.97;;;18.80;52.80;;;;;;1044341;28;20079;-77
2021/05/27 01:48:28;;;;;;;28.58;7.15;;;18.80;52.80;;;;;;1044180;28;20095;-76
2021/05/27 01:49:01;;;;;;;22.48;6.05;;;18.80;52.90;;;;;;1048592;28;20084;-76
2021/05/27 01:49:33;;;;;;;21.02;5.93;;;18.70;52.80;;;;;;1053083;28;20013;-76
2021/05/27 01:50:07;;;;;;;21.80;5.95;;;18.70;52.90;;;;;;1049599;28;20016;-77
2021/05/27 01:50:46;;;;;;;22.92;6.10;;;18.70;53.70;;;;;;1052759;28;20016;-76
2021/05/27 01:51:18;;;;;;;22.02;5.90;;;18.60;53.00;;;;;;1052668;28;20484;-76
2021/05/27 01:51:50;;;;;;;21.83;5.93;;;18.60;53.10;;;;;;1048630;28;20024;-77
2021/05/27 01:52:22;;;;;;;19.85;5.68;;;18.50;53.30;;;;;;1048704;28;20031;-77
2021/05/27 01:53:02;;;;;;;22.65;5.75;;;18.50;53.40;;;;;;1048784;28;20012;-77
2021/05/27 01:53:33;;;;;;;24.45;6.05;;;18.50;53.40;;;;;;1050766;28;20016;-76
2021/05/27 01:54:05;;;;;;;22.80;6.13;;;18.40;53.50;;;;;;1052013;28;20449;-76
2021/05/27 01:54:38;;;;;;;23.58;6.00;;;18.40;53.60;;;;;;1048126;28;20012;-77
2021/05/27 01:55:09;;;;;;;24.15;6.05;;;18.40;53.80;;;;;;1044182;28;20044;-76
2021/05/27 01:55:46;;;;;;;19.67;5.75;;;18.30;53.90;;;;;;1039731;28;20076;-77
2021/05/27 01:56:18;;;;;;;23.38;6.38;;;18.30;54.20;;;;;;1040620;28;20032;-78
2021/05/27 01:56:49;;;;;;;22.65;5.72;;;18.20;54.30;;;;;;1045430;28;20111;-76
2021/05/27 01:57:20;;;;;;;25.15;5.72;;;18.20;54.20;;;;;;1048345;28;20024;-77
2021/05/27 01:57:52;;;;;;;28.77;6.80;;;18.20;54.30;;;;;;1044373;28;20105;-78
2021/05/27 01:58:24;;;;;;;27.67;6.75;;;18.20;54.40;;;;;;1043670;28;20025;-77
2021/05/27 01:59:05;;;;;;;24.45;5.95;;;18.10;54.40;;;;;;1044371;28;20009;-79
2021/05/27 01:59:37;;;;;;;26.33;6.38;;;18.10;54.70;;;;;;1042118;28;20022;-77
2021/05/27 02:00:09;;;;;;;20.65;5.72;;;18.10;54.70;;;;;;1046511;28;20025;-78
2021/05/27 02:00:42;;;;;;;19.85;5.68;;;18.00;54.70;;;;;;1044513;28;20463;-77
2021/05/27 02:01:13;;;;;;;23.10;5.95;;;18.00;55.40;;;;;;1044600;28;20029;-78
2021/05/27 02:01:45;;;;;;;19.63;5.60;;;18.00;55.00;;;;;;1044631;28;20088;-78
2021/05/27 02:02:16;;;;;;;22.33;6.00;;;18.00;55.00;;;;;;1045316;28;20017;-78
2021/05/27 02:02:48;;;;;;;25.33;5.90;;;18.00;55.10;;;;;;1044524;28;20478;-77
2021/05/27 02:03:19;;;;;;;21.27;5.80;;;18.00;55.20;;;;;;1044251;28;20049;-78
2021/05/27 02:03:50;;;;;;;25.58;5.78;;;17.90;55.10;;;;;;1044600;28;20021;-78
2021/05/27 02:04:22;;;;;;;25.58;6.30;;;17.90;55.20;;;;;;1044592;28;20416;-77
2021/05/27 02:04:53;;;;;;;22.17;5.97;;;17.90;55.20;;;;;;1049096;28;20514;-78
2021/05/27 02:05:25;;;;;;;23.33;6.13;;;17.90;55.30;;;;;;1051321;28;20394;-77
2021/05/27 02:05:56;;;;;;;23.10;5.53;;;17.80;55.50;;;;;;1048911;28;20320;-77
2021/05/27 02:06:28;;;;;;;22.65;5.82;;;17.80;55.50;;;;;;1048764;28;20028;-77
2021/05/27 02:07:11;;;;;;;26.60;6.07;;;17.80;55.60;;;;;;1049001;28;20017;-77
2021/05/27 02:07:43;;;;;;;23.83;5.72;;;17.70;55.50;;;;;;1052521;28;20024;-77
2021/05/27 02:08:15;;;;;;;20.80;5.72;;;17.70;55.60;;;;;;1053187;28;20024;-76
2021/05/27 02:09:36;;;;;;;22.23;6.35;;;17.70;55.90;;;;;;1052777;28;20116;-77
2021/05/27 02:10:08;;;;;;;21.15;6.32;;;17.70;56.00;;;;;;1049161;28;20077;-78
2021/05/27 02:10:39;;;;;;;28.33;6.47;;;17.70;56.10;;;;;;1044098;28;20022;-77
2021/05/27 02:11:11;;;;;;;23.92;6.35;;;17.60;55.90;;;;;;1040690;28;20013;-77
2021/05/27 02:11:44;;;;;;;21.70;5.55;;;17.60;56.00;;;;;;1041755;28;20017;-78
2021/05/27 02:12:16;;;;;;;23.95;5.75;;;17.60;56.00;;;;;;1047610;28;20466;-78
2021/05/27 02:12:48;;;;;;;21.20;5.88;;;17.60;56.10;;;;;;1053430;28;20020;-77
2021/05/27 02:13:19;;;;;;;20.70;5.80;;;17.60;56.20;;;;;;1053484;28;20024;-78
2021/05/27 02:13:50;;;;;;;24.77;6.07;;;17.60;56.20;;;;;;1045991;28;20017;-78
2021/05/27 02:14:22;;;;;;;24.17;6.35;;;17.60;56.30;;;;;;1049365;28;20480;-78
2021/05/27 02:14:53;;;;;;;25.02;6.05;;;17.60;56.30;;;;;;1049829;28;20013;-78
2021/05/27 02:15:25;;;;;;;26.73;6.63;;;17.60;56.40;;;;;;1048707;28;20016;-77
2021/05/27 02:15:56;;;;;;;22.25;6.00;;;17.60;56.30;;;;;;1050004;28;20009;-78
2021/05/27 02:16:28;;;;;;;20.88;5.57;;;17.60;56.30;;;;;;1053968;28;20012;-77
2021/05/27 02:16:59;;;;;;;21.08;6.18;;;17.60;56.30;;;;;;1053931;28;20400;-78
2021/05/27 02:17:31;;;;;;;26.38;6.45;;;17.50;56.30;;;;;;1046403;28;20013;-79
2021/05/27 02:18:02;;;;;;;26.45;6.28;;;17.60;56.30;;;;;;1047486;28;20419;-76
2021/05/27 02:18:34;;;;;;;23.50;6.32;;;17.60;56.30;;;;;;1045426;28;20051;-79
2021/05/27 02:19:06;;;;;;;25.33;6.15;;;17.50;56.20;;;;;;1045707;28;20021;-76
2021/05/27 02:19:37;;;;;;;28.05;6.65;;;17.50;56.30;;;;;;1048130;28;20017;-76
2021/05/27 02:20:10;;;;;;;22.58;5.82;;;17.50;56.40;;;;;;1051820;28;20031;-76
2021/05/27 02:20:41;;;;;;;23.13;6.05;;;17.50;56.50;;;;;;1053579;28;20016;-76
2021/05/27 02:21:13;;;;;;;25.15;6.60;;;17.50;56.50;;;;;;1057485;28;20066;-81
2021/05/27 02:21:44;;;;;;;24.58;6.45;;;17.50;56.60;;;;;;1046983;28;20026;-82
2021/05/27 02:22:16;;;;;;;21.27;5.65;;;17.50;56.50;;;;;;1048730;28;20036;-81
2021/05/27 02:22:47;;;;;;;20.27;6.10;;;17.50;56.50;;;;;;1045258;28;20028;-83
2021/05/27 02:23:19;;;;;;;24.00;6.20;;;17.50;56.50;;;;;;1043285;28;20032;-82
2021/05/27 02:23:55;;;;;;;21.27;6.07;;;17.50;56.60;;;;;;1040655;28;20977;-83
2021/05/27 02:24:26;;;;;;;22.45;6.05;;;17.40;56.40;;;;;;1039152;28;20015;-84
2021/05/27 02:24:58;;;;;;;21.38;6.20;;;17.40;56.50;;;;;;1033622;28;20022;-84
2021/05/27 02:25:29;;;;;;;25.05;5.72;;;17.40;56.50;;;;;;1040417;28;20029;-84
2021/05/27 02:26:01;;;;;;;27.38;6.15;;;17.40;56.50;;;;;;1040435;28;20021;-84
2021/05/27 02:26:32;;;;;;;25.00;6.15;;;17.40;56.50;;;;;;1036976;28;20022;-83
2021/05/27 02:27:03;;;;;;;26.17;6.03;;;17.30;56.50;;;;;;1036680;28;20018;-83
2021/05/27 02:27:55;;;;;;;23.65;6.22;;;17.40;56.70;;;;;;1040466;28;20022;-85
2021/05/27 02:28:27;;;;;;;23.77;5.80;;;17.30;56.70;;;;;;1043787;28;20017;-83
2021/05/27 02:29:01;;;;;;;22.73;5.68;;;17.30;56.70;;;;;;1052187;28;20357;-84
2021/05/27 02:29:32;;;;;;;25.63;6.25;;;17.30;56.80;;;;;;1053175;28;20044;-83
2021/05/27 02:30:05;;;;;;;21.33;5.60;;;17.30;56.90;;;;;;1053114;28;20490;-82
2021/05/27 02:30:37;;;;;;;24.83;6.00;;;17.20;57.00;;;;;;1048487;28;20442;-84
2021/05/27 02:31:08;;;;;;;22.27;5.28;;;17.20;57.00;;;;;;1048733;28;20055;-82
2021/05/27 02:31:40;;;;;;;25.45;5.55;;;17.20;57.20;;;;;;1048090;28;20021;-82
2021/05/27 02:32:12;;;;;;;24.50;5.70;;;17.20;57.20;;;;;;1049281;28;20020;-82
2021/05/27 02:32:43;;;;;;;24.50;6.20;;;17.20;57.20;;;;;;1053064;28;20330;-82
2021/05/27 02:33:15;;;;;;;23.33;6.18;;;17.20;57.30;;;;;;1053160;28;20024;-82
2021/05/27 02:33:47;;;;;;;29.95;6.13;;;17.10;57.40;;;;;;1048857;28;20111;-82
2021/05/27 02:34:18;;;;;;;27.08;6.03;;;17.20;57.30;;;;;;1044525;28;20025;-81
2021/05/27 02:34:50;;;;;;;20.52;6.10;;;17.20;57.30;;;;;;1044593;28;20068;-81
2021/05/27 02:35:21;;;;;;;25.08;6.10;;;17.20;57.30;;;;;;1045791;28;20013;-80
2021/05/27 02:35:53;;;;;;;22.10;6.00;;;17.10;57.40;;;;;;1044718;28;20009;-83
2021/05/27 02:36:26;;;;;;;24.55;6.13;;;17.10;57.50;;;;;;1040495;28;20092;-80
2021/05/27 02:36:57;;;;;;;22.23;5.80;;;17.00;57.50;;;;;;1040709;28;20029;-81
2021/05/27 02:37:29;;;;;;;24.98;6.40;;;17.00;57.50;;;;;;1044945;28;20059;-83
2021/05/27 02:38:01;;;;;;;21.08;6.22;;;17.00;57.60;;;;;;1041546;28;20022;-79
2021/05/27 02:38:32;;;;;;;28.60;6.50;;;17.00;57.70;;;;;;1041786;28;20104;-80
2021/05/27 02:39:05;;;;;;;27.80;6.68;;;17.00;57.70;;;;;;1044939;28;20346;-82
2021/05/27 02:39:36;;;;;;;26.05;6.45;;;16.90;57.80;;;;;;1045002;28;20363;-79
2021/05/27 02:40:09;;;;;;;26.45;6.32;;;17.00;57.80;;;;;;1049767;28;20415;-80
2021/05/27 02:40:40;;;;;;;25.48;6.18;;;16.90;58.00;;;;;;1044946;28;20139;-80
2021/05/27 02:41:12;;;;;;;23.63;6.13;;;16.90;58.00;;;;;;1044725;28;20093;-81
2021/05/27 02:41:43;;;;;;;21.88;6.40;;;16.90;58.20;;;;;;1041746;28;20045;-81
2021/05/27 02:42:15;;;;;;;29.45;6.22;;;16.80;58.20;;;;;;1046431;28;20024;-82
2021/05/27 02:42:46;;;;;;;22.13;6.20;;;16.70;58.30;;;;;;1044702;28;20484;-80
2021/05/27 02:43:18;;;;;;;27.38;6.30;;;16.80;58.30;;;;;;1044939;28;20458;-82
2021/05/27 02:43:50;;;;;;;20.13;5.80;;;16.70;58.40;;;;;;1040371;28;20022;-82
2021/05/27 02:44:21;;;;;;;20.27;5.68;;;16.70;58.40;;;;;;1040916;28;20367;-81
2021/05/27 02:44:53;;;;;;;25.52;6.22;;;16.70;58.40;;;;;;1044832;28;20020;-81
2021/05/27 02:45:24;;;;;;;23.38;5.90;;;16.70;58.30;;;;;;1041152;28;20049;-81
2021/05/27 02:45:56;;;;;;;23.83;5.28;;;16.70;58.40;;;;;;1044205;28;20021;-81
2021/05/27 02:46:27;;;;;;;25.67;6.43;;;16.70;58.50;;;;;;1041170;28;20384;-83
2021/05/27 02:46:59;;;;;;;28.70;6.72;;;16.70;58.40;;;;;;1041224;28;20351;-81
2021/05/27 02:47:30;;;;;;;25.83;6.05;;;16.70;58.40;;;;;;1040739;28;20018;-80
2021/05/27 02:48:02;;;;;;;22.80;6.15;;;16.70;58.50;;;;;;1041116;28;20013;-82